sensor_id;sensor_type;location;lat;lon;timestamp;P1;durP1;ratioP1;P2;durP2;ratioP2
25191;SDS011;13143;50.924;5.320;2024-02-16T00:00:13;10.90;;;2.60;;
25191;SDS011;13143;50.924;5.320;2024-02-16T00:02:40;4.97;;;2.45;;
25191;SDS011;13143;50.924;5.320;2024-02-16T00:05:09;4.50;;;2.25;;
25191;SDS011;13143;50.924;5.320;2024-02-16T00:07:39;7.20;;;2.55;;
25191;SDS011;13143;50.924;5.320;2024-02-16T00:10:06;8.60;;;2.92;;
25191;SDS011;13143;50.924;5.320;2024-02-16T00:12:35;5.50;;;2.53;;
25191;SDS011;13143;50.924;5.320;2024-02-16T00:15:03;7.15;;;2.85;;
25191;SDS011;13143;50.924;5.320;2024-02-16T00:17:31;6.15;;;2.85;;
25191;SDS011;13143;50.924;5.320;2024-02-16T00:20:00;5.18;;;2.60;;
25191;SDS011;13143;50.924;5.320;2024-02-16T00:22:27;4.22;;;2.50;;
25191;SDS011;13143;50.924;5.320;2024-02-16T00:24:54;7.07;;;2.53;;
25191;SDS011;13143;50.924;5.320;2024-02-16T00:27:21;4.55;;;2.53;;
25191;SDS011;13143;50.924;5.320;2024-02-16T00:29:49;5.10;;;2.30;;
25191;SDS011;13143;50.924;5.320;2024-02-16T00:32:16;4.07;;;2.58;;
25191;SDS011;13143;50.924;5.320;2024-02-16T00:34:43;3.15;;;2.33;;
25191;SDS011;13143;50.924;5.320;2024-02-16T00:37:11;3.92;;;2.50;;
25191;SDS011;13143;50.924;5.320;2024-02-16T00:39:38;4.78;;;2.40;;
25191;SDS011;13143;50.924;5.320;2024-02-16T00:42:09;6.53;;;2.20;;
25191;SDS011;13143;50.924;5.320;2024-02-16T00:44:37;6.45;;;2.58;;
25191;SDS011;13143;50.924;5.320;2024-02-16T00:47:05;6.60;;;2.63;;
25191;SDS011;13143;50.924;5.320;2024-02-16T00:49:32;4.28;;;2.40;;
25191;SDS011;13143;50.924;5.320;2024-02-16T00:52:00;5.70;;;2.47;;
25191;SDS011;13143;50.924;5.320;2024-02-16T00:54:28;5.88;;;2.35;;
25191;SDS011;13143;50.924;5.320;2024-02-16T00:56:56;3.63;;;2.28;;
25191;SDS011;13143;50.924;5.320;2024-02-16T00:59:28;6.55;;;3.33;;
25191;SDS011;13143;50.924;5.320;2024-02-16T01:01:56;6.32;;;2.58;;
25191;SDS011;13143;50.924;5.320;2024-02-16T01:04:23;6.05;;;2.78;;
25191;SDS011;13143;50.924;5.320;2024-02-16T01:06:51;9.60;;;2.95;;
25191;SDS011;13143;50.924;5.320;2024-02-16T01:09:18;8.15;;;2.60;;
25191;SDS011;13143;50.924;5.320;2024-02-16T01:11:45;4.93;;;2.70;;
25191;SDS011;13143;50.924;5.320;2024-02-16T01:14:12;9.27;;;3.10;;
25191;SDS011;13143;50.924;5.320;2024-02-16T01:16:39;6.38;;;2.55;;
25191;SDS011;13143;50.924;5.320;2024-02-16T01:19:06;8.05;;;2.65;;
25191;SDS011;13143;50.924;5.320;2024-02-16T01:21:34;4.82;;;2.67;;
25191;SDS011;13143;50.924;5.320;2024-02-16T01:24:01;6.88;;;2.90;;
25191;SDS011;13143;50.924;5.320;2024-02-16T01:26:28;5.03;;;2.50;;
25191;SDS011;13143;50.924;5.320;2024-02-16T01:28:56;7.30;;;3.20;;
25191;SDS011;13143;50.924;5.320;2024-02-16T01:31:24;5.65;;;2.60;;
25191;SDS011;13143;50.924;5.320;2024-02-16T01:33:52;5.32;;;2.70;;
25191;SDS011;13143;50.924;5.320;2024-02-16T01:36:20;6.70;;;2.80;;
25191;SDS011;13143;50.924;5.320;2024-02-16T01:38:47;6.90;;;2.70;;
25191;SDS011;13143;50.924;5.320;2024-02-16T01:41:14;4.18;;;2.72;;
25191;SDS011;13143;50.924;5.320;2024-02-16T01:43:42;8.43;;;3.08;;
25191;SDS011;13143;50.924;5.320;2024-02-16T01:46:09;9.57;;;3.15;;
25191;SDS011;13143;50.924;5.320;2024-02-16T01:48:36;8.90;;;3.35;;
25191;SDS011;13143;50.924;5.320;2024-02-16T01:51:07;5.63;;;2.78;;
25191;SDS011;13143;50.924;5.320;2024-02-16T01:53:35;5.68;;;2.95;;
25191;SDS011;13143;50.924;5.320;2024-02-16T01:56:06;7.57;;;2.88;;
25191;SDS011;13143;50.924;5.320;2024-02-16T01:58:34;6.25;;;2.40;;
25191;SDS011;13143;50.924;5.320;2024-02-16T02:01:01;5.95;;;2.90;;
25191;SDS011;13143;50.924;5.320;2024-02-16T02:03:28;4.30;;;2.47;;
25191;SDS011;13143;50.924;5.320;2024-02-16T02:05:56;7.28;;;2.90;;
25191;SDS011;13143;50.924;5.320;2024-02-16T02:08:24;7.30;;;3.25;;
25191;SDS011;13143;50.924;5.320;2024-02-16T02:10:53;4.65;;;2.70;;
25191;SDS011;13143;50.924;5.320;2024-02-16T02:13:20;4.93;;;2.47;;
25191;SDS011;13143;50.924;5.320;2024-02-16T02:15:48;7.68;;;2.95;;
25191;SDS011;13143;50.924;5.320;2024-02-16T02:18:16;6.95;;;3.05;;
25191;SDS011;13143;50.924;5.320;2024-02-16T02:20:43;6.40;;;2.83;;
25191;SDS011;13143;50.924;5.320;2024-02-16T02:23:10;6.45;;;2.75;;
25191;SDS011;13143;50.924;5.320;2024-02-16T02:25:37;5.07;;;2.75;;
25191;SDS011;13143;50.924;5.320;2024-02-16T02:28:06;5.72;;;2.92;;
25191;SDS011;13143;50.924;5.320;2024-02-16T02:30:35;5.15;;;2.85;;
25191;SDS011;13143;50.924;5.320;2024-02-16T02:33:02;6.40;;;3.10;;
25191;SDS011;13143;50.924;5.320;2024-02-16T02:35:29;5.25;;;2.78;;
25191;SDS011;13143;50.924;5.320;2024-02-16T02:37:57;7.00;;;3.38;;
25191;SDS011;13143;50.924;5.320;2024-02-16T02:40:24;6.47;;;3.08;;
25191;SDS011;13143;50.924;5.320;2024-02-16T02:42:52;5.15;;;2.65;;
25191;SDS011;13143;50.924;5.320;2024-02-16T02:45:20;7.60;;;3.10;;
25191;SDS011;13143;50.924;5.320;2024-02-16T02:47:47;5.75;;;2.80;;
25191;SDS011;13143;50.924;5.320;2024-02-16T02:50:15;6.13;;;2.70;;
25191;SDS011;13143;50.924;5.320;2024-02-16T02:52:43;6.60;;;3.20;;
25191;SDS011;13143;50.924;5.320;2024-02-16T02:55:12;5.63;;;2.80;;
25191;SDS011;13143;50.924;5.320;2024-02-16T02:57:39;7.60;;;2.67;;
25191;SDS011;13143;50.924;5.320;2024-02-16T03:00:06;12.45;;;3.60;;
25191;SDS011;13143;50.924;5.320;2024-02-16T03:02:39;11.10;;;3.60;;
25191;SDS011;13143;50.924;5.320;2024-02-16T03:05:07;5.47;;;2.65;;
25191;SDS011;13143;50.924;5.320;2024-02-16T03:07:34;6.40;;;3.10;;
25191;SDS011;13143;50.924;5.320;2024-02-16T03:10:02;7.45;;;2.85;;
25191;SDS011;13143;50.924;5.320;2024-02-16T03:12:31;4.90;;;2.85;;
25191;SDS011;13143;50.924;5.320;2024-02-16T03:14:59;11.65;;;3.20;;
25191;SDS011;13143;50.924;5.320;2024-02-16T03:17:26;5.10;;;3.08;;
25191;SDS011;13143;50.924;5.320;2024-02-16T03:19:53;5.63;;;3.20;;
25191;SDS011;13143;50.924;5.320;2024-02-16T03:22:22;7.43;;;3.28;;
25191;SDS011;13143;50.924;5.320;2024-02-16T03:24:49;7.25;;;2.90;;
25191;SDS011;13143;50.924;5.320;2024-02-16T03:27:16;5.22;;;2.70;;
25191;SDS011;13143;50.924;5.320;2024-02-16T03:29:43;6.53;;;3.05;;
25191;SDS011;13143;50.924;5.320;2024-02-16T03:32:10;6.22;;;2.95;;
25191;SDS011;13143;50.924;5.320;2024-02-16T03:34:37;6.15;;;3.25;;
25191;SDS011;13143;50.924;5.320;2024-02-16T03:37:05;9.50;;;3.20;;
25191;SDS011;13143;50.924;5.320;2024-02-16T03:39:32;6.32;;;2.78;;
25191;SDS011;13143;50.924;5.320;2024-02-16T03:41:59;6.68;;;2.97;;
25191;SDS011;13143;50.924;5.320;2024-02-16T03:44:27;7.07;;;3.10;;
25191;SDS011;13143;50.924;5.320;2024-02-16T03:46:54;6.97;;;2.70;;
25191;SDS011;13143;50.924;5.320;2024-02-16T03:49:22;5.57;;;2.95;;
25191;SDS011;13143;50.924;5.320;2024-02-16T03:51:50;6.43;;;2.83;;
25191;SDS011;13143;50.924;5.320;2024-02-16T03:54:17;5.18;;;2.83;;
25191;SDS011;13143;50.924;5.320;2024-02-16T03:56:44;6.78;;;2.63;;
25191;SDS011;13143;50.924;5.320;2024-02-16T03:59:11;10.23;;;2.95;;
25191;SDS011;13143;50.924;5.320;2024-02-16T04:01:39;7.05;;;2.90;;
25191;SDS011;13143;50.924;5.320;2024-02-16T04:04:08;4.85;;;2.70;;
25191;SDS011;13143;50.924;5.320;2024-02-16T04:06:36;7.00;;;2.80;;
25191;SDS011;13143;50.924;5.320;2024-02-16T04:09:03;10.65;;;3.20;;
25191;SDS011;13143;50.924;5.320;2024-02-16T04:11:33;6.38;;;2.72;;
25191;SDS011;13143;50.924;5.320;2024-02-16T04:14:00;5.93;;;3.10;;
25191;SDS011;13143;50.924;5.320;2024-02-16T04:16:28;7.97;;;2.67;;
25191;SDS011;13143;50.924;5.320;2024-02-16T04:18:55;8.00;;;2.80;;
25191;SDS011;13143;50.924;5.320;2024-02-16T04:21:22;6.28;;;3.38;;
25191;SDS011;13143;50.924;5.320;2024-02-16T04:23:49;9.18;;;3.17;;
25191;SDS011;13143;50.924;5.320;2024-02-16T04:26:17;7.60;;;3.40;;
25191;SDS011;13143;50.924;5.320;2024-02-16T04:28:44;8.38;;;3.08;;
25191;SDS011;13143;50.924;5.320;2024-02-16T04:31:11;10.05;;;2.95;;
25191;SDS011;13143;50.924;5.320;2024-02-16T04:33:38;6.20;;;3.47;;
25191;SDS011;13143;50.924;5.320;2024-02-16T04:36:06;6.90;;;3.30;;
25191;SDS011;13143;50.924;5.320;2024-02-16T04:38:34;11.32;;;3.58;;
25191;SDS011;13143;50.924;5.320;2024-02-16T04:41:01;6.43;;;3.58;;
25191;SDS011;13143;50.924;5.320;2024-02-16T04:43:31;9.75;;;3.55;;
25191;SDS011;13143;50.924;5.320;2024-02-16T04:45:58;8.13;;;3.35;;
25191;SDS011;13143;50.924;5.320;2024-02-16T04:48:26;5.82;;;2.90;;
25191;SDS011;13143;50.924;5.320;2024-02-16T04:50:53;13.57;;;3.97;;
25191;SDS011;13143;50.924;5.320;2024-02-16T04:53:20;5.28;;;2.88;;
25191;SDS011;13143;50.924;5.320;2024-02-16T04:55:47;6.72;;;2.78;;
25191;SDS011;13143;50.924;5.320;2024-02-16T04:58:14;7.88;;;2.88;;
25191;SDS011;13143;50.924;5.320;2024-02-16T05:00:42;7.80;;;3.10;;
25191;SDS011;13143;50.924;5.320;2024-02-16T05:03:14;7.82;;;3.08;;
25191;SDS011;13143;50.924;5.320;2024-02-16T05:05:41;6.03;;;3.15;;
25191;SDS011;13143;50.924;5.320;2024-02-16T05:08:09;8.40;;;3.17;;
25191;SDS011;13143;50.924;5.320;2024-02-16T05:10:36;8.48;;;3.10;;
25191;SDS011;13143;50.924;5.320;2024-02-16T05:13:03;9.20;;;3.10;;
25191;SDS011;13143;50.924;5.320;2024-02-16T05:15:31;8.13;;;3.35;;
25191;SDS011;13143;50.924;5.320;2024-02-16T05:17:59;6.68;;;3.42;;
25191;SDS011;13143;50.924;5.320;2024-02-16T05:20:28;5.57;;;2.90;;
25191;SDS011;13143;50.924;5.320;2024-02-16T05:22:55;5.65;;;2.83;;
25191;SDS011;13143;50.924;5.320;2024-02-16T05:25:23;8.68;;;3.55;;
25191;SDS011;13143;50.924;5.320;2024-02-16T05:27:50;12.52;;;3.58;;
25191;SDS011;13143;50.924;5.320;2024-02-16T05:30:17;13.25;;;3.78;;
25191;SDS011;13143;50.924;5.320;2024-02-16T05:32:45;6.78;;;3.30;;
25191;SDS011;13143;50.924;5.320;2024-02-16T05:35:12;11.77;;;3.10;;
25191;SDS011;13143;50.924;5.320;2024-02-16T05:37:43;6.40;;;3.40;;
25191;SDS011;13143;50.924;5.320;2024-02-16T05:40:11;11.70;;;3.55;;
25191;SDS011;13143;50.924;5.320;2024-02-16T05:42:54;9.70;;;3.17;;
25191;SDS011;13143;50.924;5.320;2024-02-16T05:45:25;6.45;;;3.03;;
25191;SDS011;13143;50.924;5.320;2024-02-16T05:47:55;10.30;;;3.33;;
25191;SDS011;13143;50.924;5.320;2024-02-16T05:50:23;7.72;;;3.25;;
25191;SDS011;13143;50.924;5.320;2024-02-16T05:52:50;7.63;;;3.15;;
25191;SDS011;13143;50.924;5.320;2024-02-16T05:55:18;7.38;;;3.10;;
25191;SDS011;13143;50.924;5.320;2024-02-16T05:57:46;9.85;;;3.08;;
25191;SDS011;13143;50.924;5.320;2024-02-16T06:00:13;5.32;;;3.03;;
25191;SDS011;13143;50.924;5.320;2024-02-16T06:02:42;8.05;;;3.00;;
25191;SDS011;13143;50.924;5.320;2024-02-16T06:05:09;6.82;;;3.30;;
25191;SDS011;13143;50.924;5.320;2024-02-16T06:07:37;9.30;;;3.28;;
25191;SDS011;13143;50.924;5.320;2024-02-16T06:10:05;7.45;;;3.40;;
25191;SDS011;13143;50.924;5.320;2024-02-16T06:12:38;5.53;;;3.23;;
25191;SDS011;13143;50.924;5.320;2024-02-16T06:15:06;9.25;;;3.50;;
25191;SDS011;13143;50.924;5.320;2024-02-16T06:17:34;5.70;;;3.25;;
25191;SDS011;13143;50.924;5.320;2024-02-16T06:20:03;8.88;;;3.25;;
25191;SDS011;13143;50.924;5.320;2024-02-16T06:22:31;6.90;;;3.20;;
25191;SDS011;13143;50.924;5.320;2024-02-16T06:24:59;11.68;;;3.20;;
25191;SDS011;13143;50.924;5.320;2024-02-16T06:27:27;8.43;;;3.35;;
25191;SDS011;13143;50.924;5.320;2024-02-16T06:29:55;7.55;;;3.22;;
25191;SDS011;13143;50.924;5.320;2024-02-16T06:32:22;7.40;;;3.22;;
25191;SDS011;13143;50.924;5.320;2024-02-16T06:34:50;8.48;;;3.30;;
25191;SDS011;13143;50.924;5.320;2024-02-16T06:37:17;6.95;;;3.13;;
25191;SDS011;13143;50.924;5.320;2024-02-16T06:39:44;12.27;;;3.47;;
25191;SDS011;13143;50.924;5.320;2024-02-16T06:42:11;9.75;;;3.17;;
25191;SDS011;13143;50.924;5.320;2024-02-16T06:44:39;5.03;;;3.20;;
25191;SDS011;13143;50.924;5.320;2024-02-16T06:47:06;12.98;;;3.65;;
25191;SDS011;13143;50.924;5.320;2024-02-16T06:49:34;6.97;;;3.25;;
25191;SDS011;13143;50.924;5.320;2024-02-16T06:52:01;8.40;;;3.78;;
25191;SDS011;13143;50.924;5.320;2024-02-16T06:54:28;7.05;;;3.33;;
25191;SDS011;13143;50.924;5.320;2024-02-16T06:56:55;7.78;;;3.47;;
25191;SDS011;13143;50.924;5.320;2024-02-16T06:59:23;10.88;;;3.85;;
25191;SDS011;13143;50.924;5.320;2024-02-16T07:01:50;11.32;;;3.40;;
25191;SDS011;13143;50.924;5.320;2024-02-16T07:04:17;12.23;;;3.58;;
25191;SDS011;13143;50.924;5.320;2024-02-16T07:06:44;10.40;;;3.70;;
25191;SDS011;13143;50.924;5.320;2024-02-16T07:09:11;6.32;;;3.40;;
25191;SDS011;13143;50.924;5.320;2024-02-16T07:11:42;7.88;;;3.70;;
25191;SDS011;13143;50.924;5.320;2024-02-16T07:14:17;8.18;;;3.83;;
25191;SDS011;13143;50.924;5.320;2024-02-16T07:16:44;8.30;;;3.10;;
25191;SDS011;13143;50.924;5.320;2024-02-16T07:19:11;9.98;;;3.50;;
25191;SDS011;13143;50.924;5.320;2024-02-16T07:21:39;6.65;;;3.55;;
25191;SDS011;13143;50.924;5.320;2024-02-16T07:24:08;9.82;;;3.58;;
25191;SDS011;13143;50.924;5.320;2024-02-16T07:26:35;7.38;;;3.08;;
25191;SDS011;13143;50.924;5.320;2024-02-16T07:29:02;8.57;;;4.15;;
25191;SDS011;13143;50.924;5.320;2024-02-16T07:31:33;8.68;;;3.90;;
25191;SDS011;13143;50.924;5.320;2024-02-16T07:34:01;11.32;;;4.30;;
25191;SDS011;13143;50.924;5.320;2024-02-16T07:36:29;12.13;;;3.97;;
25191;SDS011;13143;50.924;5.320;2024-02-16T07:38:57;13.25;;;4.50;;
25191;SDS011;13143;50.924;5.320;2024-02-16T07:41:24;10.88;;;3.80;;
25191;SDS011;13143;50.924;5.320;2024-02-16T07:43:51;13.00;;;3.75;;
25191;SDS011;13143;50.924;5.320;2024-02-16T07:46:18;16.13;;;3.85;;
25191;SDS011;13143;50.924;5.320;2024-02-16T07:48:45;5.60;;;3.55;;
25191;SDS011;13143;50.924;5.320;2024-02-16T07:51:13;9.90;;;4.22;;
25191;SDS011;13143;50.924;5.320;2024-02-16T07:53:40;6.57;;;3.33;;
25191;SDS011;13143;50.924;5.320;2024-02-16T07:56:08;7.80;;;3.60;;
25191;SDS011;13143;50.924;5.320;2024-02-16T07:58:36;11.13;;;4.18;;
25191;SDS011;13143;50.924;5.320;2024-02-16T08:01:03;9.70;;;4.00;;
25191;SDS011;13143;50.924;5.320;2024-02-16T08:03:30;11.18;;;3.80;;
25191;SDS011;13143;50.924;5.320;2024-02-16T08:05:58;10.52;;;4.18;;
25191;SDS011;13143;50.924;5.320;2024-02-16T08:08:25;11.88;;;3.67;;
25191;SDS011;13143;50.924;5.320;2024-02-16T08:10:53;15.32;;;4.35;;
25191;SDS011;13143;50.924;5.320;2024-02-16T08:13:20;10.82;;;4.07;;
25191;SDS011;13143;50.924;5.320;2024-02-16T08:15:47;11.35;;;4.00;;
25191;SDS011;13143;50.924;5.320;2024-02-16T08:18:14;11.00;;;3.85;;
25191;SDS011;13143;50.924;5.320;2024-02-16T08:20:43;18.90;;;4.75;;
25191;SDS011;13143;50.924;5.320;2024-02-16T08:23:10;9.23;;;4.10;;
25191;SDS011;13143;50.924;5.320;2024-02-16T08:25:37;12.38;;;4.95;;
25191;SDS011;13143;50.924;5.320;2024-02-16T08:28:04;14.65;;;4.35;;
25191;SDS011;13143;50.924;5.320;2024-02-16T08:30:31;12.68;;;4.40;;
25191;SDS011;13143;50.924;5.320;2024-02-16T08:33:00;9.43;;;4.00;;
25191;SDS011;13143;50.924;5.320;2024-02-16T08:35:27;9.48;;;3.90;;
25191;SDS011;13143;50.924;5.320;2024-02-16T08:37:56;11.43;;;3.90;;
25191;SDS011;13143;50.924;5.320;2024-02-16T08:40:23;9.20;;;4.20;;
25191;SDS011;13143;50.924;5.320;2024-02-16T08:42:50;10.27;;;4.20;;
25191;SDS011;13143;50.924;5.320;2024-02-16T08:45:17;12.38;;;4.43;;
25191;SDS011;13143;50.924;5.320;2024-02-16T08:47:45;8.45;;;4.55;;
25191;SDS011;13143;50.924;5.320;2024-02-16T08:50:17;13.80;;;4.80;;
25191;SDS011;13143;50.924;5.320;2024-02-16T08:52:45;12.00;;;4.95;;
25191;SDS011;13143;50.924;5.320;2024-02-16T08:55:12;11.30;;;4.85;;
25191;SDS011;13143;50.924;5.320;2024-02-16T08:57:39;14.70;;;5.40;;
25191;SDS011;13143;50.924;5.320;2024-02-16T09:00:06;13.77;;;4.90;;
25191;SDS011;13143;50.924;5.320;2024-02-16T09:02:34;10.80;;;4.45;;
25191;SDS011;13143;50.924;5.320;2024-02-16T09:05:01;11.55;;;4.30;;
25191;SDS011;13143;50.924;5.320;2024-02-16T09:07:29;10.68;;;5.72;;
25191;SDS011;13143;50.924;5.320;2024-02-16T09:09:56;13.90;;;5.35;;
25191;SDS011;13143;50.924;5.320;2024-02-16T09:12:24;13.75;;;4.60;;
25191;SDS011;13143;50.924;5.320;2024-02-16T09:14:51;13.77;;;4.82;;
25191;SDS011;13143;50.924;5.320;2024-02-16T09:17:18;12.40;;;4.95;;
25191;SDS011;13143;50.924;5.320;2024-02-16T09:19:46;11.27;;;4.68;;
25191;SDS011;13143;50.924;5.320;2024-02-16T09:22:13;13.25;;;4.68;;
25191;SDS011;13143;50.924;5.320;2024-02-16T09:24:41;10.80;;;4.10;;
25191;SDS011;13143;50.924;5.320;2024-02-16T09:27:08;11.55;;;4.45;;
25191;SDS011;13143;50.924;5.320;2024-02-16T09:29:36;12.52;;;4.97;;
25191;SDS011;13143;50.924;5.320;2024-02-16T09:32:04;9.95;;;4.38;;
25191;SDS011;13143;50.924;5.320;2024-02-16T09:34:31;11.38;;;4.60;;
25191;SDS011;13143;50.924;5.320;2024-02-16T09:36:58;11.88;;;4.57;;
25191;SDS011;13143;50.924;5.320;2024-02-16T09:39:25;10.40;;;4.70;;
25191;SDS011;13143;50.924;5.320;2024-02-16T09:41:55;10.27;;;4.70;;
25191;SDS011;13143;50.924;5.320;2024-02-16T09:44:22;16.08;;;5.47;;
25191;SDS011;13143;50.924;5.320;2024-02-16T09:46:51;14.10;;;4.63;;
25191;SDS011;13143;50.924;5.320;2024-02-16T09:49:20;11.57;;;4.82;;
25191;SDS011;13143;50.924;5.320;2024-02-16T09:52:01;13.05;;;4.95;;
25191;SDS011;13143;50.924;5.320;2024-02-16T09:54:33;9.13;;;4.43;;
25191;SDS011;13143;50.924;5.320;2024-02-16T09:57:01;8.43;;;4.30;;
25191;SDS011;13143;50.924;5.320;2024-02-16T09:59:31;12.82;;;5.28;;
25191;SDS011;13143;50.924;5.320;2024-02-16T10:02:02;14.15;;;4.40;;
25191;SDS011;13143;50.924;5.320;2024-02-16T10:04:30;10.65;;;4.60;;
25191;SDS011;13143;50.924;5.320;2024-02-16T10:07:02;15.45;;;5.35;;
25191;SDS011;13143;50.924;5.320;2024-02-16T10:09:38;11.88;;;5.32;;
25191;SDS011;13143;50.924;5.320;2024-02-16T10:12:08;12.82;;;4.97;;
25191;SDS011;13143;50.924;5.320;2024-02-16T10:14:36;11.52;;;4.88;;
25191;SDS011;13143;50.924;5.320;2024-02-16T10:17:07;15.25;;;4.63;;
25191;SDS011;13143;50.924;5.320;2024-02-16T10:19:36;13.30;;;5.60;;
25191;SDS011;13143;50.924;5.320;2024-02-16T10:22:11;14.35;;;4.90;;
25191;SDS011;13143;50.924;5.320;2024-02-16T10:24:41;13.73;;;5.57;;
25191;SDS011;13143;50.924;5.320;2024-02-16T10:27:16;11.48;;;5.43;;
25191;SDS011;13143;50.924;5.320;2024-02-16T10:29:46;16.35;;;6.40;;
25191;SDS011;13143;50.924;5.320;2024-02-16T10:32:17;18.45;;;5.68;;
25191;SDS011;13143;50.924;5.320;2024-02-16T10:34:46;19.63;;;6.40;;
25191;SDS011;13143;50.924;5.320;2024-02-16T10:37:16;15.18;;;5.60;;
25191;SDS011;13143;50.924;5.320;2024-02-16T10:39:48;18.65;;;5.70;;
25191;SDS011;13143;50.924;5.320;2024-02-16T10:42:19;18.23;;;6.25;;
25191;SDS011;13143;50.924;5.320;2024-02-16T10:44:47;12.00;;;5.68;;
25191;SDS011;13143;50.924;5.320;2024-02-16T10:47:14;12.32;;;5.85;;
25191;SDS011;13143;50.924;5.320;2024-02-16T10:49:41;12.70;;;5.78;;
25191;SDS011;13143;50.924;5.320;2024-02-16T10:52:09;16.13;;;6.43;;
25191;SDS011;13143;50.924;5.320;2024-02-16T10:54:38;19.17;;;6.70;;
25191;SDS011;13143;50.924;5.320;2024-02-16T10:57:07;13.00;;;5.75;;
25191;SDS011;13143;50.924;5.320;2024-02-16T10:59:42;14.25;;;5.78;;
25191;SDS011;13143;50.924;5.320;2024-02-16T11:02:12;15.98;;;6.85;;
25191;SDS011;13143;50.924;5.320;2024-02-16T11:04:41;15.82;;;6.32;;
25191;SDS011;13143;50.924;5.320;2024-02-16T11:09:45;14.45;;;6.47;;
25191;SDS011;13143;50.924;5.320;2024-02-16T11:12:13;15.90;;;6.47;;
25191;SDS011;13143;50.924;5.320;2024-02-16T11:14:45;17.60;;;6.80;;
25191;SDS011;13143;50.924;5.320;2024-02-16T11:17:20;14.57;;;6.93;;
25191;SDS011;13143;50.924;5.320;2024-02-16T11:19:49;13.48;;;6.93;;
25191;SDS011;13143;50.924;5.320;2024-02-16T11:22:18;20.25;;;6.65;;
25191;SDS011;13143;50.924;5.320;2024-02-16T11:24:50;19.48;;;7.90;;
25191;SDS011;13143;50.924;5.320;2024-02-16T11:27:25;17.02;;;7.03;;
25191;SDS011;13143;50.924;5.320;2024-02-16T11:29:52;21.48;;;7.88;;
25191;SDS011;13143;50.924;5.320;2024-02-16T11:32:20;20.52;;;6.97;;
25191;SDS011;13143;50.924;5.320;2024-02-16T11:34:48;17.38;;;8.10;;
25191;SDS011;13143;50.924;5.320;2024-02-16T11:37:15;17.45;;;7.45;;
25191;SDS011;13143;50.924;5.320;2024-02-16T11:39:43;24.33;;;9.13;;
25191;SDS011;13143;50.924;5.320;2024-02-16T11:42:13;22.27;;;7.97;;
25191;SDS011;13143;50.924;5.320;2024-02-16T11:44:53;25.55;;;9.18;;
25191;SDS011;13143;50.924;5.320;2024-02-16T11:47:24;18.90;;;8.82;;
25191;SDS011;13143;50.924;5.320;2024-02-16T11:50:07;23.08;;;8.95;;
25191;SDS011;13143;50.924;5.320;2024-02-16T11:52:40;28.88;;;8.73;;
25191;SDS011;13143;50.924;5.320;2024-02-16T11:55:07;22.95;;;9.25;;
25191;SDS011;13143;50.924;5.320;2024-02-16T11:57:36;21.27;;;9.43;;
25191;SDS011;13143;50.924;5.320;2024-02-16T12:00:05;23.20;;;8.82;;
25191;SDS011;13143;50.924;5.320;2024-02-16T12:02:37;28.42;;;10.35;;
25191;SDS011;13143;50.924;5.320;2024-02-16T12:05:05;22.83;;;9.27;;
25191;SDS011;13143;50.924;5.320;2024-02-16T12:07:37;23.60;;;9.05;;
25191;SDS011;13143;50.924;5.320;2024-02-16T12:10:07;24.98;;;9.10;;
25191;SDS011;13143;50.924;5.320;2024-02-16T12:12:35;25.58;;;9.73;;
25191;SDS011;13143;50.924;5.320;2024-02-16T12:15:04;23.10;;;9.95;;
25191;SDS011;13143;50.924;5.320;2024-02-16T12:17:33;27.67;;;10.10;;
25191;SDS011;13143;50.924;5.320;2024-02-16T12:20:00;25.65;;;10.75;;
25191;SDS011;13143;50.924;5.320;2024-02-16T12:22:29;24.33;;;10.10;;
25191;SDS011;13143;50.924;5.320;2024-02-16T12:24:56;18.13;;;9.40;;
25191;SDS011;13143;50.924;5.320;2024-02-16T12:27:27;24.83;;;12.02;;
25191;SDS011;13143;50.924;5.320;2024-02-16T12:29:54;26.60;;;10.55;;
25191;SDS011;13143;50.924;5.320;2024-02-16T12:32:22;25.95;;;11.98;;
25191;SDS011;13143;50.924;5.320;2024-02-16T12:34:49;29.52;;;10.75;;
25191;SDS011;13143;50.924;5.320;2024-02-16T12:37:16;26.30;;;11.25;;
25191;SDS011;13143;50.924;5.320;2024-02-16T12:39:44;25.48;;;11.27;;
25191;SDS011;13143;50.924;5.320;2024-02-16T12:42:12;22.67;;;10.73;;
25191;SDS011;13143;50.924;5.320;2024-02-16T12:44:40;30.00;;;11.93;;
25191;SDS011;13143;50.924;5.320;2024-02-16T12:47:07;25.92;;;11.68;;
25191;SDS011;13143;50.924;5.320;2024-02-16T12:49:35;23.80;;;11.65;;
25191;SDS011;13143;50.924;5.320;2024-02-16T12:52:02;23.10;;;11.27;;
25191;SDS011;13143;50.924;5.320;2024-02-16T12:54:30;25.35;;;12.80;;
25191;SDS011;13143;50.924;5.320;2024-02-16T12:56:58;31.73;;;12.68;;
25191;SDS011;13143;50.924;5.320;2024-02-16T12:59:25;20.60;;;10.82;;
25191;SDS011;13143;50.924;5.320;2024-02-16T13:01:52;25.85;;;12.00;;
25191;SDS011;13143;50.924;5.320;2024-02-16T13:04:20;26.95;;;11.75;;
25191;SDS011;13143;50.924;5.320;2024-02-16T13:06:48;24.05;;;11.00;;
25191;SDS011;13143;50.924;5.320;2024-02-16T13:09:17;28.08;;;11.70;;
25191;SDS011;13143;50.924;5.320;2024-02-16T13:11:44;20.17;;;11.13;;
25191;SDS011;13143;50.924;5.320;2024-02-16T13:14:11;22.17;;;11.70;;
25191;SDS011;13143;50.924;5.320;2024-02-16T13:16:39;22.60;;;11.35;;
25191;SDS011;13143;50.924;5.320;2024-02-16T13:19:06;23.00;;;11.88;;
25191;SDS011;13143;50.924;5.320;2024-02-16T13:21:33;23.20;;;12.30;;
25191;SDS011;13143;50.924;5.320;2024-02-16T13:24:01;25.98;;;12.27;;
25191;SDS011;13143;50.924;5.320;2024-02-16T13:26:29;21.77;;;11.10;;
25191;SDS011;13143;50.924;5.320;2024-02-16T13:28:57;23.85;;;11.00;;
25191;SDS011;13143;50.924;5.320;2024-02-16T13:31:24;21.48;;;11.25;;
25191;SDS011;13143;50.924;5.320;2024-02-16T13:33:54;26.85;;;11.10;;
25191;SDS011;13143;50.924;5.320;2024-02-16T13:36:21;29.17;;;10.75;;
25191;SDS011;13143;50.924;5.320;2024-02-16T13:38:48;23.88;;;12.13;;
25191;SDS011;13143;50.924;5.320;2024-02-16T13:41:16;24.02;;;13.27;;
25191;SDS011;13143;50.924;5.320;2024-02-16T13:43:46;19.83;;;10.75;;
25191;SDS011;13143;50.924;5.320;2024-02-16T13:46:13;18.17;;;10.35;;
25191;SDS011;13143;50.924;5.320;2024-02-16T13:48:41;17.00;;;9.10;;
25191;SDS011;13143;50.924;5.320;2024-02-16T13:51:09;21.42;;;9.02;;
25191;SDS011;13143;50.924;5.320;2024-02-16T13:53:36;14.40;;;7.10;;
25191;SDS011;13143;50.924;5.320;2024-02-16T13:56:04;8.52;;;5.95;;
25191;SDS011;13143;50.924;5.320;2024-02-16T13:58:32;12.80;;;6.57;;
25191;SDS011;13143;50.924;5.320;2024-02-16T14:01:01;11.23;;;6.60;;
25191;SDS011;13143;50.924;5.320;2024-02-16T14:03:30;10.60;;;6.25;;
25191;SDS011;13143;50.924;5.320;2024-02-16T14:05:58;10.27;;;5.40;;
25191;SDS011;13143;50.924;5.320;2024-02-16T14:08:27;7.70;;;6.22;;
25191;SDS011;13143;50.924;5.320;2024-02-16T14:10:54;9.10;;;5.28;;
25191;SDS011;13143;50.924;5.320;2024-02-16T14:13:21;9.38;;;5.60;;
25191;SDS011;13143;50.924;5.320;2024-02-16T14:15:51;8.52;;;5.30;;
25191;SDS011;13143;50.924;5.320;2024-02-16T14:18:19;11.80;;;5.82;;
25191;SDS011;13143;50.924;5.320;2024-02-16T14:21:00;8.32;;;5.43;;
25191;SDS011;13143;50.924;5.320;2024-02-16T14:23:28;8.63;;;6.63;;
25191;SDS011;13143;50.924;5.320;2024-02-16T14:25:56;10.10;;;6.70;;
25191;SDS011;13143;50.924;5.320;2024-02-16T14:28:24;8.68;;;6.35;;
25191;SDS011;13143;50.924;5.320;2024-02-16T14:30:51;8.77;;;6.40;;
25191;SDS011;13143;50.924;5.320;2024-02-16T14:33:18;8.80;;;6.57;;
25191;SDS011;13143;50.924;5.320;2024-02-16T14:35:59;8.68;;;6.63;;
25191;SDS011;13143;50.924;5.320;2024-02-16T14:38:27;8.68;;;6.85;;
25191;SDS011;13143;50.924;5.320;2024-02-16T14:40:54;8.93;;;7.13;;
25191;SDS011;13143;50.924;5.320;2024-02-16T14:43:21;11.38;;;7.13;;
25191;SDS011;13143;50.924;5.320;2024-02-16T14:45:49;8.55;;;6.88;;
25191;SDS011;13143;50.924;5.320;2024-02-16T14:48:16;10.63;;;8.40;;